LIBP

Details ICAO LIBP (PSR)
Name PESCARA
Region Italy
Timezone Europe/Rome (UTC+1.0)
Plans Departing 164
Arriving 193
Stats Elevation 48 ft / 15 m (AMSL)
Location 42.431257° 14.183030°
Runways 1
Magnetic Variation 3.381° E
Sunrise 2017-12-15 06:27:05 UTC / 2017-12-15 07:27:05 Local
Sunset 2017-12-15 15:32:30 UTC / 2017-12-15 16:32:30 Local
Advertisement - Login to hide

Runways

ID Width Length Bearing (true) Bearing (mag) Surface Threshold Offset Overrun Length
04 148 ft / 45 m 7,943 ft / 2,421 m 37.19° 33.81° Asphalt 344 ft / 105 m 0 ft / 0 m
22 148 ft / 45 m 7,943 ft / 2,421 m 217.21° 213.83° Asphalt 617 ft / 188 m 0 ft / 0 m

Approach Navaids

Runway Type Ident Frequency Range Bearing (true) Bearing (mag) Slope Elevation
22 Localiser IPS 110.70 MHz 18 nm / 33 km 217.39° 214.01° - 48 ft / 15 m (AMSL)
22 Glidescope IPS 110.70 MHz 10 nm / 19 km 217.20° 213.82° 3.00° 48 ft / 15 m (AMSL)
22 DME IPS 110.70 MHz 18 nm / 33 km - - - 48 ft / 15 m (AMSL)

Map

Weather


0- 5 10 15 20 25 30 35+ Temperature / ° C

Clouds and Precipitation
Forecast for 2017-12-15 06:00 UTC. Updated 2 hours ago

Ground ~20,000 ft ~40,000 ft Winds

METAR

LIBP 150450Z AUTO 22024KT 9999 NCD 17/07 Q1003

TAF

TAF LIBP 142300Z 1500/1524 22018KT 9999 SCT020 TEMPO 1500/1506 22020G30KT TEMPO 1514/1518 RA

Frequencies

Tower 118.45 MHz TWR
Approach 120.05 MHz APP
Warning: Do not use this data for real-world aviation or navigation. No guarantee of current accuracy is given.